Atlanta, Indiana
Current Conditions -  °F | °C
As of 3:15 AM on Monday 24 Nov 2014 (Local Time) from KTYQ Reporting Station
Moderate Rain Moderate Rain  
Wind Chill: 55°   Ceiling: 700
Heat Index: 55°   Visibility: 3mi
Dew Point: 51°   Wind: 14mph
Humidity: 88%   Direction: 210°SSW
Pressure: 29.22"   Gusts: 21mph
Location:  40.22°N, 86.03°W
Report Text: KTYQ 240815Z AUTO 21012G18KT 3SM RA OVC007 13/11 A2922 RMK AO2 T01270108
Loading
Personal Weather Stations






























Interactive Weather Map New forecast layout! Learn more

10-Day Weather Forecast

Advertisements
Track Severe Weather on mobile